Airfield :
LOGIN :

Register | Disclaimer

   EN    FR    IT 

 










Legend :    VFR   Marginal VFR   IFR   Intensive IFR   Very Intensive IFR
Visi :
Ceiling :
>= 8 km
>= 3000ft
5 to 8 km
1000 to 3000 ft
1500m to 5 km
500 to 1000 ft
800 to 1500m
200 to 500 ft
< 800m
< 200 ft
Symbols :   Thunderstorms  Fog  Heavy snow  Heavy precipitations  Wind > 20 kt
SIGMETs :     Misc.  Thunderstorms  Icing  Turbulence  Mountain Waves  Volcanic Ashes







- Airport Elevation : 364 ft
- IATA code : FRA


EDDF - Frankfurt Int.

CURRENT METAR :
  • 170720Z 14003KT 9999 BCFG FEW001 09/08 Q1024 TEMPO 4000 BR

EXPIRED METARs :
  • 170650Z VRB02KT 3500 0800SW R25R/P2000N R25C/P2000N R25L/0650V1400U R18/1200VP2000D BCFG FEW001 07/07 Q1024 NOSIG
  • 170620Z 20002KT 0900 R25R/P2000N R25C/P2000N R25L/P2000N R18/0650VP2000U PRFG FEW001 06/06 Q1023 TEMPO 2500 BR
  • 170550Z 22003KT 0400 R25R/1900N R25C/1100VP2000U R25L/0600V1200N R18/0300V1000D PRFG FEW001 07/06 Q1023 TEMPO 0200 FG
  • 170520Z VRB02KT 0700 R25R/P2000N R25C/P2000N R25L/P2000N R18/1000VP2000D PRFG FEW001 06/06 Q1023 BECMG 0300 FG BKN001
  • 170450Z 20002KT 0700 R25R/P2000N R25C/P2000N R25L/P2000N R18/0750V1700D PRFG SCT001 06/06 Q1023 TEMPO BKN001

TAF TAF EDDF
Valid from the 17 at 06:00 until the 18 at 12:00 UTC


170500Z 1706/1812 VRB03KT 4000 BCFG FEW001
TEMPO 1706/1708 0300 FG BKN001
BECMG 1707/1710 9999
PROB30
TEMPO 1708/1710 BKN005
TEMPO 1801/1810 2000 BCFG
PROB40
TEMPO 1803/1809 0200 FG BKN001
No reported NOTAMs for that airfield.



MET'MAP, your aeronautical weather chart ! - Copyright ORBIFLY December 2007 - Disclaimer

ORBIFLY MET'MAP TEAM :

Programming & Development : Alexandra Zaïnal
Concept & Development : Baudouin d'Aumeries
Co-Development & Prog : Marc-Olivier Méhu
Technical & hardware support : Manuel Goepfert

Contact : metmap@orbifly.com




SOURCES & CREDITS :

   NOAA